Terminal Aerodrome Forecast
Issued by NWS Cleveland, OH

Home | Current Version | Previous Version | Text Only | Print | Product List | Glossary Off
Versions: 1 2 3 4 5 6 7 8 9 10 11 12 13 14 15 16 17 18 19 20 21 22 23 24 25 26 27 28 29 30 31 32 33

000
FTUS41 KCLE 200300 AAA
TAFCLE
TAF AMD
KCLE 200311Z 2003/2106 20006KT P6SM BKN150 OVC250
     FM201200 20012G18KT P6SM BKN035 OVC100
     FM202100 22014G22KT 5SM -SHRA BKN025 OVC040=

USA.gov is the U.S. government's official web portal to all federal, state and local government web resources and services.